createdAt,value
2023-03-26T00:00:00.637Z,65
2023-03-26T00:15:00.662Z,65
2023-03-26T00:30:00.605Z,65
2023-03-26T00:45:00.597Z,65
2023-03-26T01:00:00.661Z,65
2023-03-26T01:15:00.586Z,65
2023-03-26T01:30:00.549Z,65
2023-03-26T01:45:00.587Z,65
2023-03-26T02:00:00.625Z,65
2023-03-26T02:15:00.557Z,65
2023-03-26T02:30:00.592Z,65
2023-03-26T02:45:00.547Z,65
2023-03-26T03:00:00.618Z,65
2023-03-26T03:15:00.548Z,65
2023-03-26T03:30:00.728Z,65
2023-03-26T03:45:00.565Z,65
2023-03-26T04:00:00.642Z,65
2023-03-26T04:15:00.567Z,80
2023-03-26T04:30:00.574Z,80
2023-03-26T04:45:00.633Z,80
2023-03-26T05:00:00.569Z,80
2023-03-26T05:15:00.670Z,80
2023-03-26T05:30:01.153Z,80
2023-03-26T05:45:00.565Z,81
2023-03-26T06:00:00.574Z,82
2023-03-26T06:15:00.609Z,82
2023-03-26T06:30:00.598Z,82
2023-03-26T06:45:00.577Z,82
2023-03-26T07:00:00.604Z,82
2023-03-26T07:15:00.583Z,83
2023-03-26T07:30:00.519Z,83
2023-03-26T07:45:00.593Z,83
2023-03-26T08:00:00.615Z,83
2023-03-26T08:15:00.524Z,82
2023-03-26T08:30:00.550Z,82
2023-03-26T08:45:00.527Z,80
2023-03-26T09:00:03.114Z,79
2023-03-26T09:15:00.575Z,76
2023-03-26T09:30:00.539Z,76
2023-03-26T09:45:00.548Z,74
2023-03-26T10:00:00.550Z,72
2023-03-26T10:15:00.662Z,71
2023-03-26T10:30:00.576Z,70
2023-03-26T10:45:00.560Z,66
2023-03-26T11:00:00.603Z,67
2023-03-26T11:15:00.659Z,65
2023-03-26T11:30:00.587Z,65
2023-03-26T11:45:00.545Z,63
2023-03-26T12:00:00.548Z,62
2023-03-26T12:15:00.599Z,62
2023-03-26T12:30:00.541Z,61
2023-03-26T12:45:01.986Z,61
2023-03-26T13:00:00.633Z,61
2023-03-26T13:15:00.609Z,62
2023-03-26T13:30:00.756Z,62
2023-03-26T13:45:06.025Z,61
2023-03-26T14:00:00.592Z,61
2023-03-26T14:15:00.630Z,62
2023-03-26T14:30:00.659Z,62
2023-03-26T14:45:00.584Z,61
2023-03-26T15:00:00.570Z,62
2023-03-26T15:15:00.596Z,62
2023-03-26T15:30:00.527Z,62
2023-03-26T15:45:00.521Z,63
2023-03-26T16:00:02.338Z,63
2023-03-26T16:15:02.078Z,64
2023-03-26T16:30:00.594Z,64
2023-03-26T16:45:00.558Z,65
2023-03-26T17:00:07.513Z,68
2023-03-26T17:15:00.592Z,69
2023-03-26T17:30:00.597Z,72
2023-03-26T17:45:00.536Z,72
2023-03-26T18:00:00.578Z,73
2023-03-26T18:15:00.613Z,73
2023-03-26T18:30:03.435Z,73
2023-03-26T18:45:05.178Z,74
2023-03-26T19:00:00.632Z,75
2023-03-26T19:15:00.655Z,75
2023-03-26T19:30:00.585Z,77
2023-03-26T19:45:00.558Z,77
2023-03-26T20:00:00.676Z,77
2023-03-26T20:15:00.647Z,76
2023-03-26T20:30:00.565Z,77
2023-03-26T20:45:00.545Z,77
2023-03-26T21:00:00.585Z,77
2023-03-26T21:15:10.185Z,78
2023-03-26T21:30:00.532Z,80
2023-03-26T21:45:00.607Z,80
2023-03-26T22:00:00.575Z,80
2023-03-26T22:15:00.572Z,80
2023-03-26T22:30:00.610Z,80
2023-03-26T22:45:00.697Z,80
2023-03-26T23:00:00.569Z,80
2023-03-26T23:15:00.652Z,80
2023-03-26T23:30:00.582Z,80
2023-03-26T23:45:00.536Z,81
